Time;durP1;ratioP1;P1;durP2;ratioP2;P2;SDS_P1;SDS_P2;PMS_P1;PMS_P2;Temp;Humidity;BMP_temperature;BMP_pressure;BME280_temperature;BME280_humidity;BME280_pressure;Samples;Min_cycle;Max_cycle;Signal;HPM_P1;HPM_P2
2022/02/10 00:16:20;;;;;;;33.67;24.95;;;9.90;99.90;;;;;;5083331;28;20043;-86
2022/02/10 00:21:46;;;;;;;33.63;24.52;;;9.90;99.90;;;;;;5084321;28;20097;-85
2022/02/10 00:35:05;;;;;;;30.52;22.50;;;9.80;99.90;;;;;;5099921;28;20532;-85
2022/02/10 00:37:50;;;;;;;35.88;23.35;;;9.80;99.90;;;;;;5082025;28;20020;-86
2022/02/10 00:40:20;;;;;;;31.98;22.15;;;9.80;99.90;;;;;;5067252;28;20059;-86
2022/02/10 00:42:47;;;;;;;31.10;21.67;;;9.80;99.90;;;;;;5099373;28;20399;-86
2022/02/10 00:45:13;;;;;;;28.75;20.85;;;9.80;99.90;;;;;;5080235;28;20361;-86
2022/02/10 00:47:53;;;;;;;28.90;20.58;;;9.80;99.90;;;;;;5078055;28;20081;-86
2022/02/10 00:50:20;;;;;;;25.95;19.42;;;9.80;99.90;;;;;;5080106;28;20115;-86
2022/02/10 00:52:47;;;;;;;27.42;19.38;;;9.80;99.90;;;;;;5078134;28;20028;-86
2022/02/10 00:55:17;;;;;;;28.15;17.92;;;9.80;99.90;;;;;;5078158;28;20055;-89
2022/02/10 00:57:42;;;;;;;24.08;17.02;;;9.80;99.90;;;;;;5061828;28;20034;-88
2022/02/10 01:10:53;;;;;;;19.70;14.05;;;9.80;99.90;;;;;;5095720;28;20111;-85
2022/02/10 01:13:30;;;;;;;20.05;13.63;;;9.80;99.90;;;;;;5095083;28;20028;-85
2022/02/10 01:29:56;;;;;;;18.40;12.75;;;9.90;99.90;;;;;;5000148;28;20060;-86
2022/02/10 01:32:22;;;;;;;18.33;12.95;;;9.90;99.90;;;;;;5044065;28;20480;-86
2022/02/10 01:34:52;;;;;;;20.00;13.30;;;9.90;99.90;;;;;;5060032;28;20043;-86
2022/02/10 01:37:19;;;;;;;18.13;13.37;;;9.90;99.90;;;;;;5061335;28;20028;-86
2022/02/10 01:39:50;;;;;;;18.30;12.88;;;9.90;99.90;;;;;;5094991;28;20020;-86
2022/02/10 02:03:17;;;;;;;17.02;12.27;;;9.90;99.90;;;;;;5044695;28;20086;-86
2022/02/10 02:04:07;;;;;;;17.85;13.05;;;9.90;99.90;;;;;;5074966;28;20175;-85
2022/02/10 02:06:42;;;;;;;18.13;12.52;;;9.90;99.90;;;;;;5040127;28;20123;-86
2022/02/10 02:09:11;;;;;;;20.05;12.75;;;9.90;99.90;;;;;;5073339;28;20043;-86
2022/02/10 02:11:39;;;;;;;18.73;13.18;;;9.90;99.90;;;;;;5073560;28;20039;-85
2022/02/10 02:14:08;;;;;;;17.85;12.43;;;9.90;99.90;;;;;;5057483;28;20028;-86
2022/02/10 02:16:34;;;;;;;18.35;13.65;;;9.90;99.90;;;;;;5075890;28;20078;-85
2022/02/10 02:19:00;;;;;;;17.15;12.48;;;9.90;99.90;;;;;;5094495;28;20033;-86
2022/02/10 02:21:27;;;;;;;17.85;12.45;;;9.90;99.90;;;;;;5078099;28;20024;-85
2022/02/10 02:23:53;;;;;;;15.27;11.60;;;9.90;99.90;;;;;;5094641;28;20025;-86
2022/02/10 02:26:24;;;;;;;15.40;11.82;;;9.90;99.90;;;;;;5095073;28;20068;-89
2022/02/10 02:28:54;;;;;;;17.52;12.25;;;9.90;99.90;;;;;;5076961;28;20024;-85
2022/02/10 02:31:31;;;;;;;15.57;11.95;;;9.90;99.90;;;;;;5068749;28;20086;-86
2022/02/10 02:34:33;;;;;;;15.18;11.38;;;9.90;99.90;;;;;;5072954;28;20024;-85
2022/02/10 03:06:32;;;;;;;13.40;10.57;;;9.80;99.90;;;;;;5072410;28;20088;-86
2022/02/10 03:09:04;;;;;;;;;;;9.80;99.90;;;;;;5073093;28;20040;-85
2022/02/10 03:11:30;;;;;;;20.77;11.52;;;9.80;99.90;;;;;;5055426;28;19913;-86
2022/02/10 03:22:21;;;;;;;14.88;11.80;;;9.80;99.90;;;;;;5072111;28;20488;-86
2022/02/10 04:10:22;;;;;;;21.15;13.85;;;9.80;99.90;;;;;;5055186;28;20033;-85
2022/02/10 04:44:46;;;;;;;21.88;13.85;;;9.60;99.90;;;;;;5096635;28;20504;-85
2022/02/10 04:55:40;;;;;;;19.88;15.07;;;9.50;99.90;;;;;;5081135;28;20503;-85
2022/02/10 05:16:45;;;;;;;24.38;17.23;;;9.60;99.90;;;;;;5079715;28;20036;-85
2022/02/10 05:19:20;;;;;;;22.80;15.63;;;9.60;99.90;;;;;;5079761;28;20032;-85
2022/02/10 05:32:49;;;;;;;26.33;16.83;;;9.60;99.90;;;;;;5080343;28;20043;-85
2022/02/10 05:37:43;;;;;;;22.42;16.80;;;9.60;99.90;;;;;;5078307;28;20036;-84
2022/02/10 05:40:15;;;;;;;24.08;16.95;;;9.60;99.90;;;;;;5061263;28;20040;-85
2022/02/10 05:43:15;;;;;;;25.48;17.15;;;9.60;99.90;;;;;;5077047;28;20431;-85
2022/02/10 05:45:42;;;;;;;23.67;16.65;;;9.60;99.90;;;;;;5080215;28;20032;-86
2022/02/10 05:48:39;;;;;;;22.35;16.38;;;9.60;99.90;;;;;;5062725;28;20467;-85
2022/02/10 05:56:12;;;;;;;21.40;16.90;;;9.60;99.90;;;;;;5094982;28;20097;-85
2022/02/10 06:53:17;;;;;;;29.73;20.13;;;9.50;99.90;;;;;;5039099;28;20040;-87
2022/02/10 07:04:24;;;;;;;27.65;19.90;;;9.40;99.90;;;;;;5073321;28;20031;-87
2022/02/10 07:15:10;;;;;;;29.52;19.25;;;9.40;99.90;;;;;;5018614;28;20092;-88
2022/02/10 07:56:35;;;;;;;20.75;11.75;;;9.20;99.90;;;;;;5077646;28;20049;-87
2022/02/10 09:03:58;;;;;;;8.32;2.13;;;9.00;99.90;;;;;;5034379;28;20555;-88
2022/02/10 09:55:19;;;;;;;8.70;2.25;;;8.80;99.90;;;;;;5077556;28;20070;-87
2022/02/10 10:02:58;;;;;;;5.93;1.40;;;8.80;99.90;;;;;;5095478;28;20028;-87
2022/02/10 10:51:15;;;;;;;9.23;2.63;;;8.80;99.90;;;;;;5074454;28;20062;-87
2022/02/10 10:56:32;;;;;;;9.82;2.95;;;8.80;99.90;;;;;;5051690;28;20469;-86
2022/02/10 11:38:22;;;;;;;8.32;3.83;;;9.10;99.90;;;;;;5078417;28;20035;-86
2022/02/10 11:41:07;;;;;;;9.57;3.85;;;9.20;99.90;;;;;;5074137;28;20040;-85
2022/02/10 14:10:24;;;;;;;9.63;2.10;;;9.70;99.90;;;;;;5058150;28;20048;-87
2022/02/10 14:15:24;;;;;;;5.55;1.67;;;9.70;99.90;;;;;;5043596;28;20373;-84
2022/02/10 14:25:50;;;;;;;8.68;1.83;;;9.80;99.90;;;;;;5074353;28;20082;-85
2022/02/10 14:28:17;;;;;;;7.93;1.80;;;9.80;99.90;;;;;;5056463;28;20016;-84
2022/02/10 14:30:43;;;;;;;10.70;1.75;;;9.80;99.90;;;;;;5056326;28;20165;-84
2022/02/10 14:33:09;;;;;;;7.55;1.63;;;9.80;99.90;;;;;;5056401;28;20064;-85
2022/02/10 14:35:49;;;;;;;9.15;2.22;;;9.80;99.90;;;;;;5055966;28;20055;-85
2022/02/10 15:14:53;;;;;;;7.53;1.83;;;9.60;99.90;;;;;;5057029;28;20096;-85
2022/02/10 15:51:52;;;;;;;8.38;1.60;;;9.60;99.90;;;;;;5063618;28;20460;-88
2022/02/10 16:18:51;;;;;;;10.65;2.15;;;9.40;99.90;;;;;;5060858;28;20109;-87
2022/02/10 16:21:30;;;;;;;9.30;1.92;;;9.40;99.90;;;;;;5054773;28;20049;-87
2022/02/10 16:24:02;;;;;;;7.57;1.67;;;9.40;99.90;;;;;;5071697;28;20025;-87
2022/02/10 16:26:40;;;;;;;5.35;1.73;;;9.40;99.90;;;;;;5040599;28;20021;-86
2022/02/10 16:29:08;;;;;;;8.40;1.50;;;9.40;99.90;;;;;;5053858;28;20025;-88
2022/02/10 16:31:34;;;;;;;5.60;1.60;;;9.30;99.90;;;;;;5007231;28;20033;-85
2022/02/10 16:34:00;;;;;;;9.95;2.05;;;9.30;99.90;;;;;;5039352;28;20036;-87
2022/02/10 16:36:30;;;;;;;8.40;1.63;;;9.30;99.90;;;;;;5006428;28;20033;-86
2022/02/10 16:38:58;;;;;;;6.38;1.63;;;9.30;99.90;;;;;;5038570;28;20021;-87
2022/02/10 16:41:24;;;;;;;5.20;1.50;;;9.30;99.90;;;;;;5038536;28;20044;-86
2022/02/10 16:43:51;;;;;;;10.40;2.03;;;9.30;99.90;;;;;;5037990;28;20405;-86
2022/02/10 16:46:17;;;;;;;8.80;1.58;;;9.30;99.90;;;;;;5055162;28;20040;-87
2022/02/10 16:48:43;;;;;;;7.22;2.00;;;9.20;99.90;;;;;;5056297;28;20025;-86
2022/02/10 16:51:10;;;;;;;10.48;2.10;;;9.20;99.90;;;;;;5021508;28;20477;-86
2022/02/10 16:53:43;;;;;;;5.65;1.55;;;9.20;99.90;;;;;;5021885;28;20025;-86
2022/02/10 16:56:14;;;;;;;6.72;1.85;;;9.20;99.90;;;;;;5038551;28;20055;-86
2022/02/10 16:58:51;;;;;;;7.65;1.33;;;9.20;99.90;;;;;;5055915;28;20025;-86
2022/02/10 17:17:30;;;;;;;9.48;1.85;;;9.10;99.90;;;;;;5020785;28;20029;-87
2022/02/10 17:25:22;;;;;;;9.23;1.98;;;9.00;99.90;;;;;;5037909;28;20501;-84
2022/02/10 17:27:54;;;;;;;6.57;1.58;;;9.00;99.90;;;;;;5036867;28;20028;-84
2022/02/10 17:44:52;;;;;;;12.48;1.85;;;8.90;99.90;;;;;;4993124;28;20151;-83
2022/02/10 17:52:33;;;;;;;7.38;1.50;;;8.90;99.90;;;;;;5040090;28;20166;-84
2022/02/10 17:54:59;;;;;;;10.47;1.43;;;8.80;99.90;;;;;;5054752;28;20029;-88
2022/02/10 17:57:25;;;;;;;9.85;2.50;;;8.90;99.90;;;;;;5055057;28;20354;-87
2022/02/10 17:59:51;;;;;;;8.80;2.00;;;8.80;99.90;;;;;;5053333;28;20028;-87
2022/02/10 18:02:17;;;;;;;9.73;2.47;;;8.80;99.90;;;;;;5036851;28;20516;-86
2022/02/10 18:04:42;;;;;;;7.43;1.83;;;8.80;99.90;;;;;;5036986;28;20025;-87
2022/02/10 18:07:10;;;;;;;7.72;2.05;;;8.80;99.90;;;;;;5019911;28;20087;-87
2022/02/10 18:10:13;;;;;;;8.57;2.30;;;8.70;99.90;;;;;;5037023;28;20112;-86
2022/02/10 18:15:29;;;;;;;11.90;2.33;;;8.70;99.90;;;;;;5039472;28;20122;-86
2022/02/10 18:18:01;;;;;;;7.47;2.20;;;8.70;99.90;;;;;;5054130;28;20025;-87
2022/02/10 18:20:36;;;;;;;9.88;2.85;;;8.70;99.90;;;;;;5037187;28;20489;-86
2022/02/10 18:23:08;;;;;;;8.73;1.80;;;8.60;99.90;;;;;;5053744;28;20488;-87
2022/02/10 18:33:24;;;;;;;8.18;1.83;;;8.60;99.90;;;;;;5040708;28;20041;-85
2022/02/10 19:10:46;;;;;;;7.07;1.67;;;8.40;99.90;;;;;;5037133;28;20037;-85
2022/02/10 19:13:16;;;;;;;8.98;1.90;;;8.30;99.90;;;;;;5019524;28;20044;-86
2022/02/10 19:15:42;;;;;;;7.50;2.25;;;8.30;99.90;;;;;;5020159;28;20035;-84
2022/02/10 19:18:09;;;;;;;13.90;1.88;;;8.30;99.90;;;;;;5018690;28;20021;-84
2022/02/10 19:20:36;;;;;;;12.65;2.33;;;8.30;99.90;;;;;;5035383;28;20040;-84
2022/02/10 19:23:05;;;;;;;10.45;1.95;;;8.30;99.90;;;;;;5035122;28;20036;-84
2022/02/10 19:25:31;;;;;;;7.28;1.75;;;8.30;99.90;;;;;;5035191;28;20060;-84
2022/02/10 19:27:57;;;;;;;9.95;1.92;;;8.30;99.90;;;;;;5035229;28;20079;-84
2022/02/10 19:30:26;;;;;;;10.45;2.50;;;8.20;99.90;;;;;;5018884;28;20454;-84
2022/02/10 19:32:57;;;;;;;12.05;2.28;;;8.20;99.90;;;;;;5035261;28;20060;-85
2022/02/10 19:35:25;;;;;;;12.43;2.05;;;8.20;99.90;;;;;;5036219;28;20032;-84
2022/02/10 19:37:58;;;;;;;10.32;1.98;;;8.20;99.90;;;;;;5035285;28;20029;-85
2022/02/10 19:40:29;;;;;;;6.30;1.95;;;8.20;99.90;;;;;;5019186;28;20041;-84
2022/02/10 19:42:57;;;;;;;9.95;2.00;;;8.20;99.90;;;;;;5034978;28;20099;-87
2022/02/10 19:45:26;;;;;;;16.15;2.65;;;8.10;99.90;;;;;;5018717;28;20033;-85
2022/02/10 19:47:52;;;;;;;9.68;1.98;;;8.10;99.90;;;;;;5019055;28;20041;-84
2022/02/10 19:50:26;;;;;;;10.15;2.10;;;8.10;99.90;;;;;;5034758;28;20473;-84
2022/02/10 19:52:54;;;;;;;10.80;2.30;;;8.10;99.90;;;;;;5036549;28;20036;-84
2022/02/10 19:55:22;;;;;;;11.65;2.55;;;8.10;99.90;;;;;;5039415;28;20071;-87
2022/02/10 19:57:52;;;;;;;7.80;2.20;;;8.00;99.90;;;;;;5023846;28;20037;-85
2022/02/10 20:00:22;;;;;;;10.80;2.47;;;8.10;99.90;;;;;;5022755;28;20032;-85
2022/02/10 20:02:48;;;;;;;11.33;2.83;;;8.00;99.90;;;;;;5057360;28;20069;-85
2022/02/10 20:05:14;;;;;;;7.53;2.60;;;8.00;99.90;;;;;;5039155;28;20426;-85
2022/02/10 20:07:42;;;;;;;14.77;5.20;;;8.00;99.90;;;;;;5022378;28;20017;-84
2022/02/10 20:10:09;;;;;;;8.93;2.50;;;8.00;99.90;;;;;;5039337;28;20543;-85
2022/02/10 20:12:37;;;;;;;9.70;3.45;;;7.90;99.90;;;;;;5022803;28;20051;-85
2022/02/10 20:15:03;;;;;;;10.00;3.40;;;7.90;99.90;;;;;;5038561;28;20021;-85
2022/02/10 20:17:29;;;;;;;12.70;3.08;;;7.90;99.90;;;;;;5038319;28;20025;-86
2022/02/10 20:19:55;;;;;;;11.57;3.03;;;7.90;99.90;;;;;;5022725;28;20054;-85
2022/02/10 20:22:20;;;;;;;9.73;2.63;;;7.80;99.90;;;;;;5055484;28;20029;-84
2022/02/10 20:24:46;;;;;;;9.90;2.38;;;7.80;99.90;;;;;;5038664;28;20025;-85
2022/02/10 20:27:12;;;;;;;10.30;2.83;;;7.80;99.90;;;;;;5056210;28;20021;-84
2022/02/10 20:29:38;;;;;;;8.02;2.70;;;7.80;99.90;;;;;;5038532;28;22492;-85
2022/02/10 20:32:04;;;;;;;10.15;2.50;;;7.80;99.90;;;;;;5038292;28;20037;-85
2022/02/10 20:34:32;;;;;;;10.20;2.47;;;7.80;99.90;;;;;;5038506;28;20025;-84
2022/02/10 20:36:59;;;;;;;9.63;2.05;;;7.70;99.90;;;;;;5038216;28;20071;-84
2022/02/10 20:39:28;;;;;;;10.93;2.03;;;7.70;99.90;;;;;;5056012;28;20021;-87
2022/02/10 20:42:04;;;;;;;8.90;2.10;;;7.70;99.90;;;;;;5038935;28;20025;-86
2022/02/10 20:44:31;;;;;;;13.43;3.00;;;7.70;99.90;;;;;;5038195;28;20041;-86
2022/02/10 20:46:56;;;;;;;9.07;3.00;;;7.60;99.90;;;;;;5021902;28;20021;-87
2022/02/10 20:49:27;;;;;;;12.20;2.83;;;7.70;99.90;;;;;;5055761;28;20029;-86
2022/02/10 20:51:54;;;;;;;8.63;2.40;;;7.60;99.90;;;;;;5038165;28;20025;-89
2022/02/10 20:54:21;;;;;;;8.38;2.53;;;7.60;99.90;;;;;;5038230;28;20315;-87
2022/02/10 20:56:46;;;;;;;8.35;2.75;;;7.60;99.90;;;;;;5037884;28;20017;-84
2022/02/10 20:59:34;;;;;;;10.55;2.92;;;7.60;99.90;;;;;;5037711;28;20472;-84
2022/02/10 21:02:11;;;;;;;12.18;3.03;;;7.50;99.90;;;;;;5037949;28;20025;-84
2022/02/10 21:04:44;;;;;;;6.45;2.10;;;7.50;99.90;;;;;;5053592;28;20032;-84
2022/02/10 21:07:16;;;;;;;12.27;2.58;;;7.50;99.90;;;;;;5021993;28;20033;-85
2022/02/10 21:09:51;;;;;;;12.30;3.90;;;7.50;99.90;;;;;;5055599;28;20453;-84
2022/02/10 21:12:17;;;;;;;9.52;2.80;;;7.50;99.90;;;;;;5022361;28;20025;-83
2022/02/10 21:14:44;;;;;;;10.57;2.58;;;7.50;99.90;;;;;;5037416;28;20032;-86
2022/02/10 21:17:12;;;;;;;7.75;2.63;;;7.40;99.90;;;;;;5037372;28;20021;-85
2022/02/10 21:19:40;;;;;;;10.55;2.72;;;7.40;99.90;;;;;;5037640;28;20524;-85
2022/02/10 21:22:10;;;;;;;11.15;2.90;;;7.40;99.90;;;;;;5021033;28;20087;-86
2022/02/10 21:24:42;;;;;;;6.38;2.03;;;7.40;99.90;;;;;;5021475;28;20437;-85
2022/02/10 21:27:52;;;;;;;7.18;2.70;;;7.40;99.90;;;;;;5037486;28;20025;-86
2022/02/10 21:30:00;;;;;;;8.43;2.35;;;7.40;99.90;;;;;;5046828;28;20037;-85
2022/02/10 21:32:28;;;;;;;9.23;2.92;;;7.30;99.90;;;;;;5037149;28;20377;-85
2022/02/10 21:37:50;;;;;;;8.55;3.00;;;7.30;99.90;;;;;;5039504;28;20098;-84
2022/02/10 21:48:19;;;;;;;9.02;2.63;;;7.20;99.90;;;;;;5054899;28;20392;-90
2022/02/10 22:12:09;;;;;;;11.93;3.78;;;7.00;99.90;;;;;;5080908;28;20060;-86
2022/02/10 22:20:09;;;;;;;13.82;3.80;;;6.90;99.90;;;;;;5077575;28;20500;-87
2022/02/10 22:22:38;;;;;;;13.13;2.65;;;6.90;99.90;;;;;;5054313;28;20021;-87
2022/02/10 22:25:11;;;;;;;8.68;2.20;;;6.90;99.90;;;;;;5041622;28;20020;-88
2022/02/10 22:27:42;;;;;;;6.03;2.22;;;6.80;99.90;;;;;;5053365;28;20124;-89
2022/02/10 22:30:17;;;;;;;10.40;2.40;;;6.80;99.90;;;;;;5053767;28;20036;-89
2022/02/10 22:32:55;;;;;;;8.77;2.40;;;6.80;99.90;;;;;;5038550;28;20025;-89
2022/02/10 22:35:22;;;;;;;5.60;1.80;;;6.80;99.90;;;;;;5065156;28;20409;-87
2022/02/10 22:37:50;;;;;;;10.50;2.45;;;6.70;99.90;;;;;;5052342;28;20028;-85
2022/02/10 22:40:38;;;;;;;7.35;2.03;;;6.70;99.90;;;;;;5039766;28;20342;-86
2022/02/10 22:43:04;;;;;;;8.93;2.30;;;6.70;99.90;;;;;;5073794;28;20550;-86
2022/02/10 22:45:30;;;;;;;7.57;2.20;;;6.70;99.90;;;;;;5055764;28;20021;-86
2022/02/10 22:47:55;;;;;;;8.52;1.77;;;6.70;99.90;;;;;;5039401;28;20056;-86
2022/02/10 22:50:21;;;;;;;7.78;1.85;;;6.70;99.90;;;;;;5055624;28;20081;-86
2022/02/10 22:52:47;;;;;;;11.52;2.92;;;6.60;99.90;;;;;;5056043;28;20021;-86
2022/02/10 22:55:12;;;;;;;9.07;2.63;;;6.70;99.90;;;;;;5055523;28;20033;-85
2022/02/10 22:57:38;;;;;;;8.77;2.17;;;6.60;99.90;;;;;;5055752;28;20024;-87
2022/02/10 23:00:08;;;;;;;8.55;2.03;;;6.60;99.90;;;;;;5055653;28;20129;-86
2022/02/10 23:02:34;;;;;;;8.02;2.38;;;6.50;99.90;;;;;;5039108;28;20040;-86
2022/02/10 23:05:00;;;;;;;7.70;1.65;;;6.60;99.90;;;;;;5073421;28;20025;-86
2022/02/10 23:07:26;;;;;;;7.18;2.50;;;6.50;99.90;;;;;;5055442;28;20020;-86
2022/02/10 23:12:53;;;;;;;9.73;2.15;;;6.50;99.90;;;;;;5027291;28;20036;-87
2022/02/10 23:15:41;;;;;;;9.52;2.80;;;6.40;99.90;;;;;;5023128;28;20477;-87
2022/02/10 23:18:12;;;;;;;11.68;3.05;;;6.40;99.90;;;;;;5055216;28;20030;-87
2022/02/10 23:20:38;;;;;;;6.43;2.00;;;6.40;99.90;;;;;;5055332;28;20119;-88
2022/02/10 23:23:07;;;;;;;10.70;2.30;;;6.40;99.90;;;;;;5038843;28;20039;-86
2022/02/10 23:25:33;;;;;;;8.60;2.10;;;6.30;99.90;;;;;;5072984;28;20036;-87
2022/02/10 23:28:00;;;;;;;8.68;2.65;;;6.30;99.90;;;;;;5038008;28;20043;-87
2022/02/10 23:30:28;;;;;;;12.65;2.63;;;6.30;99.90;;;;;;5021959;28;20090;-86
2022/02/10 23:32:58;;;;;;;8.88;2.35;;;6.30;99.90;;;;;;5055237;28;20017;-86
2022/02/10 23:38:09;;;;;;;10.60;2.22;;;6.20;99.90;;;;;;5073321;28;20047;-85
2022/02/10 23:40:43;;;;;;;7.70;2.75;;;6.20;99.90;;;;;;5038536;28;20035;-85
2022/02/10 23:43:09;;;;;;;11.50;2.72;;;6.20;99.90;;;;;;5024356;28;20563;-86
2022/02/10 23:45:40;;;;;;;8.52;2.60;;;6.20;99.90;;;;;;5038282;28;20127;-85
2022/02/10 23:48:05;;;;;;;13.38;3.05;;;6.20;99.90;;;;;;5040079;28;20021;-86
2022/02/10 23:50:32;;;;;;;12.27;2.75;;;6.20;99.90;;;;;;5021566;28;20044;-85
2022/02/10 23:52:57;;;;;;;13.18;3.95;;;6.10;99.90;;;;;;5021960;28;20078;-85
2022/02/10 23:55:32;;;;;;;12.23;3.60;;;6.10;99.90;;;;;;5021769;28;20020;-85
